sensor_id;sensor_type;location;lat;lon;timestamp;temperature;humidity
14985;DHT22;7588;62.368;25.902;2023-03-01T00:01:29;-2.60;99.90
14985;DHT22;7588;62.368;25.902;2023-03-01T00:03:56;-2.60;99.90
14985;DHT22;7588;62.368;25.902;2023-03-01T00:06:22;-2.70;99.90
14985;DHT22;7588;62.368;25.902;2023-03-01T00:08:49;-2.70;99.90
14985;DHT22;7588;62.368;25.902;2023-03-01T00:11:19;-2.60;99.90
14985;DHT22;7588;62.368;25.902;2023-03-01T00:13:46;-2.50;99.90
14985;DHT22;7588;62.368;25.902;2023-03-01T00:16:15;-2.60;99.90
14985;DHT22;7588;62.368;25.902;2023-03-01T00:18:41;-2.60;99.90
14985;DHT22;7588;62.368;25.902;2023-03-01T00:21:07;-2.60;99.90
14985;DHT22;7588;62.368;25.902;2023-03-01T00:23:36;-2.70;99.90
14985;DHT22;7588;62.368;25.902;2023-03-01T00:26:05;-2.80;99.90
14985;DHT22;7588;62.368;25.902;2023-03-01T00:28:31;-2.80;99.90
14985;DHT22;7588;62.368;25.902;2023-03-01T00:31:06;-2.80;99.90
14985;DHT22;7588;62.368;25.902;2023-03-01T00:33:32;-2.80;99.90
14985;DHT22;7588;62.368;25.902;2023-03-01T00:35:58;-2.80;99.90
14985;DHT22;7588;62.368;25.902;2023-03-01T00:38:25;-2.80;99.90
14985;DHT22;7588;62.368;25.902;2023-03-01T00:40:50;-2.80;99.90
14985;DHT22;7588;62.368;25.902;2023-03-01T00:43:16;-2.80;99.90
14985;DHT22;7588;62.368;25.902;2023-03-01T00:45:42;-2.90;99.90
14985;DHT22;7588;62.368;25.902;2023-03-01T00:48:07;-3.00;99.90
14985;DHT22;7588;62.368;25.902;2023-03-01T00:50:33;-3.00;99.90
14985;DHT22;7588;62.368;25.902;2023-03-01T00:52:59;-3.10;99.90
14985;DHT22;7588;62.368;25.902;2023-03-01T00:55:25;-3.10;99.90
14985;DHT22;7588;62.368;25.902;2023-03-01T00:57:51;-3.10;99.90
14985;DHT22;7588;62.368;25.902;2023-03-01T01:00:18;-3.10;99.90
14985;DHT22;7588;62.368;25.902;2023-03-01T01:02:44;-2.90;99.90
14985;DHT22;7588;62.368;25.902;2023-03-01T01:05:10;-2.90;99.90
14985;DHT22;7588;62.368;25.902;2023-03-01T01:07:36;-3.00;99.90
14985;DHT22;7588;62.368;25.902;2023-03-01T01:10:02;-2.90;99.90
14985;DHT22;7588;62.368;25.902;2023-03-01T01:12:30;-2.90;99.90
14985;DHT22;7588;62.368;25.902;2023-03-01T01:14:55;-3.00;99.90
14985;DHT22;7588;62.368;25.902;2023-03-01T01:17:21;-3.00;99.90
14985;DHT22;7588;62.368;25.902;2023-03-01T01:19:47;-3.00;99.90
14985;DHT22;7588;62.368;25.902;2023-03-01T01:22:13;-3.00;99.90
14985;DHT22;7588;62.368;25.902;2023-03-01T01:24:38;-3.00;99.90
14985;DHT22;7588;62.368;25.902;2023-03-01T01:27:04;-3.10;99.90
14985;DHT22;7588;62.368;25.902;2023-03-01T01:29:30;-3.10;99.90
14985;DHT22;7588;62.368;25.902;2023-03-01T01:31:55;-3.10;99.90
14985;DHT22;7588;62.368;25.902;2023-03-01T01:34:21;-3.20;99.90
14985;DHT22;7588;62.368;25.902;2023-03-01T01:36:52;-3.10;99.90
14985;DHT22;7588;62.368;25.902;2023-03-01T01:39:20;-3.10;99.90
14985;DHT22;7588;62.368;25.902;2023-03-01T01:41:45;-3.00;99.90
14985;DHT22;7588;62.368;25.902;2023-03-01T01:49:25;-3.10;99.90
14985;DHT22;7588;62.368;25.902;2023-03-01T01:52:00;-3.20;99.90
14985;DHT22;7588;62.368;25.902;2023-03-01T01:54:56;-3.30;99.90
14985;DHT22;7588;62.368;25.902;2023-03-01T01:57:44;-3.30;99.90
14985;DHT22;7588;62.368;25.902;2023-03-01T02:00:15;-3.30;99.90
14985;DHT22;7588;62.368;25.902;2023-03-01T02:02:43;-3.50;99.90
14985;DHT22;7588;62.368;25.902;2023-03-01T02:05:26;-3.30;99.90
14985;DHT22;7588;62.368;25.902;2023-03-01T02:07:53;-3.40;99.90
14985;DHT22;7588;62.368;25.902;2023-03-01T02:10:21;-3.50;99.90
14985;DHT22;7588;62.368;25.902;2023-03-01T02:12:47;-3.60;99.90
14985;DHT22;7588;62.368;25.902;2023-03-01T02:15:13;-3.60;99.90
14985;DHT22;7588;62.368;25.902;2023-03-01T02:17:39;-3.70;99.90
14985;DHT22;7588;62.368;25.902;2023-03-01T02:22:46;-3.70;99.90
14985;DHT22;7588;62.368;25.902;2023-03-01T02:25:54;-3.60;99.90
14985;DHT22;7588;62.368;25.902;2023-03-01T02:30:46;-3.50;99.90
14985;DHT22;7588;62.368;25.902;2023-03-01T02:33:32;-3.60;99.90
14985;DHT22;7588;62.368;25.902;2023-03-01T02:36:03;-3.60;99.90
14985;DHT22;7588;62.368;25.902;2023-03-01T02:38:32;-3.70;99.90
14985;DHT22;7588;62.368;25.902;2023-03-01T02:40:57;-3.70;99.90
14985;DHT22;7588;62.368;25.902;2023-03-01T02:43:27;-3.80;99.90
14985;DHT22;7588;62.368;25.902;2023-03-01T02:45:58;-3.80;99.90
14985;DHT22;7588;62.368;25.902;2023-03-01T02:48:24;-3.90;99.90
14985;DHT22;7588;62.368;25.902;2023-03-01T02:55:55;-3.80;99.90
14985;DHT22;7588;62.368;25.902;2023-03-01T02:58:21;-3.80;99.90
14985;DHT22;7588;62.368;25.902;2023-03-01T03:00:46;-3.80;99.90
14985;DHT22;7588;62.368;25.902;2023-03-01T03:03:15;-3.80;99.90
14985;DHT22;7588;62.368;25.902;2023-03-01T03:05:42;-3.70;99.90
14985;DHT22;7588;62.368;25.902;2023-03-01T03:08:08;-3.60;99.90
14985;DHT22;7588;62.368;25.902;2023-03-01T03:10:38;-3.40;99.90
14985;DHT22;7588;62.368;25.902;2023-03-01T03:13:07;-3.30;99.90
14985;DHT22;7588;62.368;25.902;2023-03-01T03:15:33;-3.40;99.90
14985;DHT22;7588;62.368;25.902;2023-03-01T03:18:04;-3.30;99.90
14985;DHT22;7588;62.368;25.902;2023-03-01T03:20:30;-3.30;99.90
14985;DHT22;7588;62.368;25.902;2023-03-01T03:22:57;-3.30;99.90
14985;DHT22;7588;62.368;25.902;2023-03-01T03:25:27;-3.30;99.90
14985;DHT22;7588;62.368;25.902;2023-03-01T03:27:54;-3.40;99.90
14985;DHT22;7588;62.368;25.902;2023-03-01T03:30:23;-3.40;99.90
14985;DHT22;7588;62.368;25.902;2023-03-01T03:32:49;-3.40;99.90
14985;DHT22;7588;62.368;25.902;2023-03-01T03:35:29;-3.30;99.90
14985;DHT22;7588;62.368;25.902;2023-03-01T03:37:56;-3.30;99.90
14985;DHT22;7588;62.368;25.902;2023-03-01T03:40:39;-3.40;99.90
14985;DHT22;7588;62.368;25.902;2023-03-01T03:43:08;-3.30;99.90
14985;DHT22;7588;62.368;25.902;2023-03-01T03:45:35;-3.30;99.90
14985;DHT22;7588;62.368;25.902;2023-03-01T03:48:02;-3.10;99.90
14985;DHT22;7588;62.368;25.902;2023-03-01T03:50:29;-3.20;99.90
14985;DHT22;7588;62.368;25.902;2023-03-01T03:52:55;-3.00;99.90
14985;DHT22;7588;62.368;25.902;2023-03-01T03:55:20;-3.00;99.90
14985;DHT22;7588;62.368;25.902;2023-03-01T03:57:47;-3.00;99.90
14985;DHT22;7588;62.368;25.902;2023-03-01T04:00:22;-3.00;99.90
14985;DHT22;7588;62.368;25.902;2023-03-01T04:02:49;-3.00;99.90
14985;DHT22;7588;62.368;25.902;2023-03-01T04:05:18;-2.90;99.90
14985;DHT22;7588;62.368;25.902;2023-03-01T04:07:44;-2.80;99.90
14985;DHT22;7588;62.368;25.902;2023-03-01T04:10:14;-2.70;99.90
14985;DHT22;7588;62.368;25.902;2023-03-01T04:12:40;-2.70;99.90
14985;DHT22;7588;62.368;25.902;2023-03-01T04:15:09;-2.70;99.90
14985;DHT22;7588;62.368;25.902;2023-03-01T04:17:44;-2.80;99.90
14985;DHT22;7588;62.368;25.902;2023-03-01T04:20:15;-2.80;99.90
14985;DHT22;7588;62.368;25.902;2023-03-01T04:22:51;-2.90;99.90
14985;DHT22;7588;62.368;25.902;2023-03-01T04:25:17;-2.90;99.90
14985;DHT22;7588;62.368;25.902;2023-03-01T04:27:43;-2.80;99.90
14985;DHT22;7588;62.368;25.902;2023-03-01T04:30:09;-2.70;99.90
14985;DHT22;7588;62.368;25.902;2023-03-01T04:32:35;-2.60;99.90
14985;DHT22;7588;62.368;25.902;2023-03-01T04:35:01;-2.50;99.90
14985;DHT22;7588;62.368;25.902;2023-03-01T04:37:26;-2.50;99.90
14985;DHT22;7588;62.368;25.902;2023-03-01T04:39:52;-2.40;99.90
14985;DHT22;7588;62.368;25.902;2023-03-01T04:42:19;-2.40;99.90
14985;DHT22;7588;62.368;25.902;2023-03-01T04:44:45;-2.40;99.90
14985;DHT22;7588;62.368;25.902;2023-03-01T04:47:11;-2.40;99.90
14985;DHT22;7588;62.368;25.902;2023-03-01T04:49:37;-2.40;99.90
14985;DHT22;7588;62.368;25.902;2023-03-01T04:52:03;-2.30;99.90
14985;DHT22;7588;62.368;25.902;2023-03-01T04:54:33;-2.40;99.90
14985;DHT22;7588;62.368;25.902;2023-03-01T04:57:00;-2.40;99.90
14985;DHT22;7588;62.368;25.902;2023-03-01T04:59:26;-2.50;99.90
14985;DHT22;7588;62.368;25.902;2023-03-01T05:01:53;-2.50;99.90
14985;DHT22;7588;62.368;25.902;2023-03-01T05:04:23;-2.50;99.90
14985;DHT22;7588;62.368;25.902;2023-03-01T05:06:50;-2.60;99.90
14985;DHT22;7588;62.368;25.902;2023-03-01T05:09:16;-2.60;99.90
14985;DHT22;7588;62.368;25.902;2023-03-01T05:11:42;-2.70;99.90
14985;DHT22;7588;62.368;25.902;2023-03-01T05:14:08;-2.70;99.90
14985;DHT22;7588;62.368;25.902;2023-03-01T05:16:36;-2.70;99.90
14985;DHT22;7588;62.368;25.902;2023-03-01T05:19:03;-2.80;99.90
14985;DHT22;7588;62.368;25.902;2023-03-01T05:21:37;-2.80;99.90
14985;DHT22;7588;62.368;25.902;2023-03-01T05:24:24;-2.70;99.90
14985;DHT22;7588;62.368;25.902;2023-03-01T05:26:50;-2.80;99.90
14985;DHT22;7588;62.368;25.902;2023-03-01T05:29:18;-2.70;99.90
14985;DHT22;7588;62.368;25.902;2023-03-01T05:31:44;-2.80;99.90
14985;DHT22;7588;62.368;25.902;2023-03-01T05:34:10;-2.70;99.90
14985;DHT22;7588;62.368;25.902;2023-03-01T05:36:38;-2.70;99.90
14985;DHT22;7588;62.368;25.902;2023-03-01T05:39:04;-2.70;99.90
14985;DHT22;7588;62.368;25.902;2023-03-01T05:41:30;-2.60;99.90
14985;DHT22;7588;62.368;25.902;2023-03-01T05:43:55;-2.60;99.90
14985;DHT22;7588;62.368;25.902;2023-03-01T05:46:21;-2.60;99.90
14985;DHT22;7588;62.368;25.902;2023-03-01T05:48:49;-2.70;99.90
14985;DHT22;7588;62.368;25.902;2023-03-01T05:51:15;-2.60;99.90
14985;DHT22;7588;62.368;25.902;2023-03-01T05:53:41;-2.50;99.90
14985;DHT22;7588;62.368;25.902;2023-03-01T05:56:07;-2.50;99.90
14985;DHT22;7588;62.368;25.902;2023-03-01T05:58:33;-2.50;99.90
14985;DHT22;7588;62.368;25.902;2023-03-01T06:00:58;-2.50;99.90
14985;DHT22;7588;62.368;25.902;2023-03-01T06:03:25;-2.50;99.90
14985;DHT22;7588;62.368;25.902;2023-03-01T06:05:56;-2.40;99.90
14985;DHT22;7588;62.368;25.902;2023-03-01T06:08:22;-2.50;99.90
14985;DHT22;7588;62.368;25.902;2023-03-01T06:10:47;-2.50;99.90
14985;DHT22;7588;62.368;25.902;2023-03-01T06:13:13;-2.40;99.90
14985;DHT22;7588;62.368;25.902;2023-03-01T06:15:39;-2.40;99.90
14985;DHT22;7588;62.368;25.902;2023-03-01T06:18:04;-2.40;99.90
14985;DHT22;7588;62.368;25.902;2023-03-01T06:20:30;-2.40;99.90
14985;DHT22;7588;62.368;25.902;2023-03-01T06:22:57;-2.40;99.90
14985;DHT22;7588;62.368;25.902;2023-03-01T06:25:25;-2.30;99.90
14985;DHT22;7588;62.368;25.902;2023-03-01T06:27:51;-2.30;99.90
14985;DHT22;7588;62.368;25.902;2023-03-01T06:30:19;-2.30;99.90
14985;DHT22;7588;62.368;25.902;2023-03-01T06:32:45;-2.30;99.90
14985;DHT22;7588;62.368;25.902;2023-03-01T06:35:13;-2.20;99.90
14985;DHT22;7588;62.368;25.902;2023-03-01T06:37:40;-2.20;99.90
14985;DHT22;7588;62.368;25.902;2023-03-01T06:40:07;-2.20;99.90
14985;DHT22;7588;62.368;25.902;2023-03-01T06:42:37;-2.10;99.90
14985;DHT22;7588;62.368;25.902;2023-03-01T06:45:04;-2.10;99.90
14985;DHT22;7588;62.368;25.902;2023-03-01T06:47:31;-2.00;99.90
14985;DHT22;7588;62.368;25.902;2023-03-01T06:49:58;-2.00;99.90
14985;DHT22;7588;62.368;25.902;2023-03-01T06:52:24;-1.90;99.90
14985;DHT22;7588;62.368;25.902;2023-03-01T06:54:50;-1.90;99.90
14985;DHT22;7588;62.368;25.902;2023-03-01T06:57:16;-1.90;99.90
14985;DHT22;7588;62.368;25.902;2023-03-01T06:59:42;-1.80;99.90
14985;DHT22;7588;62.368;25.902;2023-03-01T07:02:10;-1.70;99.90
14985;DHT22;7588;62.368;25.902;2023-03-01T07:04:36;-1.70;99.90
14985;DHT22;7588;62.368;25.902;2023-03-01T07:07:02;-1.70;99.90
14985;DHT22;7588;62.368;25.902;2023-03-01T07:09:28;-1.60;99.90
14985;DHT22;7588;62.368;25.902;2023-03-01T07:11:54;-1.60;99.90
14985;DHT22;7588;62.368;25.902;2023-03-01T07:14:19;-1.60;99.90
14985;DHT22;7588;62.368;25.902;2023-03-01T07:16:45;-1.50;99.90
14985;DHT22;7588;62.368;25.902;2023-03-01T07:19:11;-1.50;99.90
14985;DHT22;7588;62.368;25.902;2023-03-01T07:21:37;-1.50;99.90
14985;DHT22;7588;62.368;25.902;2023-03-01T07:24:07;-1.50;99.90
14985;DHT22;7588;62.368;25.902;2023-03-01T07:26:33;-1.40;99.90
14985;DHT22;7588;62.368;25.902;2023-03-01T07:29:00;-1.30;99.90
14985;DHT22;7588;62.368;25.902;2023-03-01T07:31:26;-1.30;99.90
14985;DHT22;7588;62.368;25.902;2023-03-01T07:33:54;-1.20;99.90
14985;DHT22;7588;62.368;25.902;2023-03-01T07:36:20;-1.20;99.90
14985;DHT22;7588;62.368;25.902;2023-03-01T07:38:45;-1.10;99.90
14985;DHT22;7588;62.368;25.902;2023-03-01T07:41:11;-1.10;99.90
14985;DHT22;7588;62.368;25.902;2023-03-01T07:43:37;-0.90;99.90
14985;DHT22;7588;62.368;25.902;2023-03-01T07:46:03;-0.90;99.90
14985;DHT22;7588;62.368;25.902;2023-03-01T07:48:30;-0.80;99.90
14985;DHT22;7588;62.368;25.902;2023-03-01T07:51:00;-0.70;99.90
14985;DHT22;7588;62.368;25.902;2023-03-01T07:53:26;-0.60;99.90
14985;DHT22;7588;62.368;25.902;2023-03-01T07:56:12;-0.50;99.90
14985;DHT22;7588;62.368;25.902;2023-03-01T07:58:41;-0.30;99.90
14985;DHT22;7588;62.368;25.902;2023-03-01T08:01:09;-0.50;99.90
14985;DHT22;7588;62.368;25.902;2023-03-01T08:03:36;-0.60;99.90
14985;DHT22;7588;62.368;25.902;2023-03-01T08:06:03;-0.60;99.90
14985;DHT22;7588;62.368;25.902;2023-03-01T08:08:30;-0.50;99.90
14985;DHT22;7588;62.368;25.902;2023-03-01T08:10:57;-0.30;99.90
14985;DHT22;7588;62.368;25.902;2023-03-01T08:13:23;-0.30;99.90
14985;DHT22;7588;62.368;25.902;2023-03-01T08:15:49;-0.10;99.90
14985;DHT22;7588;62.368;25.902;2023-03-01T08:18:19;0.00;99.90
14985;DHT22;7588;62.368;25.902;2023-03-01T08:20:45;0.00;99.90
14985;DHT22;7588;62.368;25.902;2023-03-01T08:23:11;0.20;99.90
14985;DHT22;7588;62.368;25.902;2023-03-01T08:25:38;0.20;99.90
14985;DHT22;7588;62.368;25.902;2023-03-01T08:28:04;0.20;99.90
14985;DHT22;7588;62.368;25.902;2023-03-01T08:30:30;0.20;99.90
14985;DHT22;7588;62.368;25.902;2023-03-01T08:32:56;0.30;99.90
14985;DHT22;7588;62.368;25.902;2023-03-01T08:35:21;0.30;99.90
14985;DHT22;7588;62.368;25.902;2023-03-01T08:37:47;0.40;99.90
14985;DHT22;7588;62.368;25.902;2023-03-01T08:40:13;0.40;99.90
14985;DHT22;7588;62.368;25.902;2023-03-01T08:42:40;0.50;99.90
14985;DHT22;7588;62.368;25.902;2023-03-01T08:45:07;0.40;99.90
14985;DHT22;7588;62.368;25.902;2023-03-01T08:47:33;0.70;99.90
14985;DHT22;7588;62.368;25.902;2023-03-01T08:49:59;0.80;99.90
14985;DHT22;7588;62.368;25.902;2023-03-01T08:52:25;0.90;99.90
14985;DHT22;7588;62.368;25.902;2023-03-01T08:54:52;0.90;99.90
14985;DHT22;7588;62.368;25.902;2023-03-01T08:57:18;1.00;99.90
14985;DHT22;7588;62.368;25.902;2023-03-01T08:59:44;1.00;99.90
14985;DHT22;7588;62.368;25.902;2023-03-01T09:02:14;1.00;99.90
14985;DHT22;7588;62.368;25.902;2023-03-01T09:04:40;0.90;99.90
14985;DHT22;7588;62.368;25.902;2023-03-01T09:07:06;0.90;99.90
14985;DHT22;7588;62.368;25.902;2023-03-01T09:09:32;1.00;99.90
14985;DHT22;7588;62.368;25.902;2023-03-01T09:11:57;1.00;99.90
14985;DHT22;7588;62.368;25.902;2023-03-01T09:14:23;1.10;99.90
14985;DHT22;7588;62.368;25.902;2023-03-01T09:16:49;1.10;99.90
14985;DHT22;7588;62.368;25.902;2023-03-01T09:19:17;1.10;99.90
14985;DHT22;7588;62.368;25.902;2023-03-01T09:21:42;1.10;99.90
14985;DHT22;7588;62.368;25.902;2023-03-01T09:24:22;1.10;99.90
14985;DHT22;7588;62.368;25.902;2023-03-01T09:26:48;1.30;99.90
14985;DHT22;7588;62.368;25.902;2023-03-01T09:29:15;1.60;99.90
14985;DHT22;7588;62.368;25.902;2023-03-01T09:31:41;1.80;99.90
14985;DHT22;7588;62.368;25.902;2023-03-01T09:34:08;1.90;99.90
14985;DHT22;7588;62.368;25.902;2023-03-01T09:36:34;2.00;99.90
14985;DHT22;7588;62.368;25.902;2023-03-01T09:39:00;2.00;99.90
14985;DHT22;7588;62.368;25.902;2023-03-01T09:44:34;1.90;99.90
14985;DHT22;7588;62.368;25.902;2023-03-01T09:47:02;1.80;99.90
14985;DHT22;7588;62.368;25.902;2023-03-01T09:49:31;1.80;99.90
14985;DHT22;7588;62.368;25.902;2023-03-01T09:54:45;1.70;99.90
14985;DHT22;7588;62.368;25.902;2023-03-01T10:10:46;2.10;99.90
14985;DHT22;7588;62.368;25.902;2023-03-01T10:13:29;2.30;99.90
14985;DHT22;7588;62.368;25.902;2023-03-01T10:16:01;2.50;99.90
14985;DHT22;7588;62.368;25.902;2023-03-01T10:18:31;2.60;99.90
14985;DHT22;7588;62.368;25.902;2023-03-01T10:20:59;2.70;99.90
14985;DHT22;7588;62.368;25.902;2023-03-01T10:23:27;2.70;99.90
14985;DHT22;7588;62.368;25.902;2023-03-01T10:29:07;2.80;99.90
14985;DHT22;7588;62.368;25.902;2023-03-01T10:34:13;2.70;99.90
14985;DHT22;7588;62.368;25.902;2023-03-01T10:36:40;2.60;99.90
14985;DHT22;7588;62.368;25.902;2023-03-01T10:39:21;2.60;99.90
14985;DHT22;7588;62.368;25.902;2023-03-01T10:42:02;2.50;99.90
14985;DHT22;7588;62.368;25.902;2023-03-01T10:44:44;2.60;99.90
14985;DHT22;7588;62.368;25.902;2023-03-01T10:47:27;2.50;99.90
14985;DHT22;7588;62.368;25.902;2023-03-01T10:50:00;2.40;99.90
14985;DHT22;7588;62.368;25.902;2023-03-01T10:55:00;2.30;99.90
14985;DHT22;7588;62.368;25.902;2023-03-01T10:57:40;2.10;99.90
14985;DHT22;7588;62.368;25.902;2023-03-01T11:00:21;1.90;99.90
14985;DHT22;7588;62.368;25.902;2023-03-01T11:03:03;1.90;99.90
14985;DHT22;7588;62.368;25.902;2023-03-01T11:05:29;1.80;99.90
14985;DHT22;7588;62.368;25.902;2023-03-01T11:07:57;1.70;99.90
14985;DHT22;7588;62.368;25.902;2023-03-01T11:13:13;1.80;99.90
14985;DHT22;7588;62.368;25.902;2023-03-01T11:15:40;1.80;99.90
14985;DHT22;7588;62.368;25.902;2023-03-01T11:18:21;1.80;99.90
14985;DHT22;7588;62.368;25.902;2023-03-01T11:20:49;1.90;99.90
14985;DHT22;7588;62.368;25.902;2023-03-01T11:23:17;1.80;99.90
14985;DHT22;7588;62.368;25.902;2023-03-01T11:25:48;1.70;99.90
14985;DHT22;7588;62.368;25.902;2023-03-01T11:28:17;1.70;99.90
14985;DHT22;7588;62.368;25.902;2023-03-01T11:31:06;1.70;99.90
14985;DHT22;7588;62.368;25.902;2023-03-01T11:38:53;1.60;99.90
14985;DHT22;7588;62.368;25.902;2023-03-01T11:41:23;1.70;99.90
14985;DHT22;7588;62.368;25.902;2023-03-01T12:00:21;1.70;99.90
14985;DHT22;7588;62.368;25.902;2023-03-01T12:26:02;1.90;99.90
14985;DHT22;7588;62.368;25.902;2023-03-01T12:34:21;2.30;99.90
14985;DHT22;7588;62.368;25.902;2023-03-01T12:48:36;2.10;99.90
14985;DHT22;7588;62.368;25.902;2023-03-01T12:51:08;2.10;99.90
14985;DHT22;7588;62.368;25.902;2023-03-01T12:53:40;2.20;99.90
14985;DHT22;7588;62.368;25.902;2023-03-01T12:56:09;2.30;99.90
14985;DHT22;7588;62.368;25.902;2023-03-01T13:04:35;2.70;99.90
14985;DHT22;7588;62.368;25.902;2023-03-01T13:12:02;4.10;99.90
14985;DHT22;7588;62.368;25.902;2023-03-01T13:14:37;4.30;99.90
14985;DHT22;7588;62.368;25.902;2023-03-01T13:17:30;4.80;99.90
14985;DHT22;7588;62.368;25.902;2023-03-01T13:19:57;5.30;99.90
14985;DHT22;7588;62.368;25.902;2023-03-01T13:22:32;5.40;99.90
14985;DHT22;7588;62.368;25.902;2023-03-01T13:25:11;5.70;99.90
14985;DHT22;7588;62.368;25.902;2023-03-01T13:27:38;5.80;99.90
14985;DHT22;7588;62.368;25.902;2023-03-01T13:30:12;5.50;99.90
14985;DHT22;7588;62.368;25.902;2023-03-01T13:32:50;5.50;99.90
14985;DHT22;7588;62.368;25.902;2023-03-01T13:37:44;5.40;99.90
14985;DHT22;7588;62.368;25.902;2023-03-01T13:42:51;4.50;99.90
14985;DHT22;7588;62.368;25.902;2023-03-01T13:45:19;4.10;99.90
14985;DHT22;7588;62.368;25.902;2023-03-01T13:47:47;3.80;99.90
14985;DHT22;7588;62.368;25.902;2023-03-01T13:50:23;3.70;99.90
14985;DHT22;7588;62.368;25.902;2023-03-01T13:53:01;3.50;99.90
14985;DHT22;7588;62.368;25.902;2023-03-01T13:58:12;3.10;99.90
14985;DHT22;7588;62.368;25.902;2023-03-01T14:00:40;3.00;99.90
14985;DHT22;7588;62.368;25.902;2023-03-01T14:03:17;2.80;99.90
14985;DHT22;7588;62.368;25.902;2023-03-01T14:06:07;2.80;99.90
14985;DHT22;7588;62.368;25.902;2023-03-01T14:08:35;2.80;99.90
14985;DHT22;7588;62.368;25.902;2023-03-01T14:14:06;2.60;99.90
14985;DHT22;7588;62.368;25.902;2023-03-01T14:24:43;2.40;99.90
14985;DHT22;7588;62.368;25.902;2023-03-01T14:27:13;2.20;99.90
14985;DHT22;7588;62.368;25.902;2023-03-01T14:29:39;2.10;99.90
14985;DHT22;7588;62.368;25.902;2023-03-01T14:32:28;2.00;99.90
14985;DHT22;7588;62.368;25.902;2023-03-01T14:34:55;1.90;99.90
14985;DHT22;7588;62.368;25.902;2023-03-01T14:37:32;1.90;99.90
14985;DHT22;7588;62.368;25.902;2023-03-01T14:40:00;1.70;99.90
14985;DHT22;7588;62.368;25.902;2023-03-01T14:42:31;1.60;99.90
14985;DHT22;7588;62.368;25.902;2023-03-01T14:45:00;1.40;99.90
14985;DHT22;7588;62.368;25.902;2023-03-01T14:47:30;1.30;99.90
14985;DHT22;7588;62.368;25.902;2023-03-01T14:50:09;1.20;99.90
14985;DHT22;7588;62.368;25.902;2023-03-01T14:52:40;1.10;99.90
14985;DHT22;7588;62.368;25.902;2023-03-01T14:55:18;0.90;99.90
14985;DHT22;7588;62.368;25.902;2023-03-01T14:57:46;0.80;99.90
14985;DHT22;7588;62.368;25.902;2023-03-01T15:00:22;0.70;99.90
14985;DHT22;7588;62.368;25.902;2023-03-01T15:02:50;0.70;99.90
14985;DHT22;7588;62.368;25.902;2023-03-01T15:05:28;0.60;99.90
14985;DHT22;7588;62.368;25.902;2023-03-01T15:07:55;0.50;99.90
14985;DHT22;7588;62.368;25.902;2023-03-01T15:10:28;0.50;99.90
14985;DHT22;7588;62.368;25.902;2023-03-01T15:12:54;0.30;99.90
14985;DHT22;7588;62.368;25.902;2023-03-01T15:17:56;0.10;99.90
14985;DHT22;7588;62.368;25.902;2023-03-01T15:20:26;0.10;99.90
14985;DHT22;7588;62.368;25.902;2023-03-01T15:22:53;0.10;99.90
14985;DHT22;7588;62.368;25.902;2023-03-01T15:25:25;0.00;99.90
14985;DHT22;7588;62.368;25.902;2023-03-01T15:27:52;-0.20;99.90
14985;DHT22;7588;62.368;25.902;2023-03-01T15:30:30;-0.30;99.90
14985;DHT22;7588;62.368;25.902;2023-03-01T15:35:47;-0.50;99.90
14985;DHT22;7588;62.368;25.902;2023-03-01T15:38:36;-0.60;99.90
14985;DHT22;7588;62.368;25.902;2023-03-01T15:41:26;-0.60;99.90
14985;DHT22;7588;62.368;25.902;2023-03-01T15:43:52;-0.80;99.90
14985;DHT22;7588;62.368;25.902;2023-03-01T15:46:33;-0.90;99.90
14985;DHT22;7588;62.368;25.902;2023-03-01T15:49:34;-0.90;99.90
14985;DHT22;7588;62.368;25.902;2023-03-01T15:51:52;-1.00;99.90
14985;DHT22;7588;62.368;25.902;2023-03-01T15:54:21;-1.10;99.90
14985;DHT22;7588;62.368;25.902;2023-03-01T15:56:47;-1.20;99.90
14985;DHT22;7588;62.368;25.902;2023-03-01T15:59:14;-1.10;99.90
14985;DHT22;7588;62.368;25.902;2023-03-01T16:01:43;-1.20;99.90
14985;DHT22;7588;62.368;25.902;2023-03-01T16:04:13;-1.30;99.90
14985;DHT22;7588;62.368;25.902;2023-03-01T16:06:52;-1.40;99.90
14985;DHT22;7588;62.368;25.902;2023-03-01T16:09:25;-1.60;99.90
14985;DHT22;7588;62.368;25.902;2023-03-01T16:11:52;-1.60;99.90
14985;DHT22;7588;62.368;25.902;2023-03-01T16:14:19;-1.70;99.90
14985;DHT22;7588;62.368;25.902;2023-03-01T16:16:45;-1.70;99.90
14985;DHT22;7588;62.368;25.902;2023-03-01T16:19:11;-1.70;99.90
14985;DHT22;7588;62.368;25.902;2023-03-01T16:21:38;-1.70;99.90
14985;DHT22;7588;62.368;25.902;2023-03-01T16:24:04;-1.60;99.90
14985;DHT22;7588;62.368;25.902;2023-03-01T16:26:30;-1.70;99.90
14985;DHT22;7588;62.368;25.902;2023-03-01T16:28:56;-1.80;99.90
14985;DHT22;7588;62.368;25.902;2023-03-01T16:31:22;-1.80;99.90
14985;DHT22;7588;62.368;25.902;2023-03-01T16:33:49;-1.90;99.90
14985;DHT22;7588;62.368;25.902;2023-03-01T16:36:18;-2.00;99.90
14985;DHT22;7588;62.368;25.902;2023-03-01T16:38:44;-1.90;99.90
14985;DHT22;7588;62.368;25.902;2023-03-01T16:41:15;-2.00;99.90
14985;DHT22;7588;62.368;25.902;2023-03-01T16:43:41;-2.00;99.90
14985;DHT22;7588;62.368;25.902;2023-03-01T16:46:12;-2.10;99.90
14985;DHT22;7588;62.368;25.902;2023-03-01T16:48:38;-2.10;99.90
14985;DHT22;7588;62.368;25.902;2023-03-01T16:51:05;-2.30;99.90
14985;DHT22;7588;62.368;25.902;2023-03-01T16:53:31;-2.40;99.90
14985;DHT22;7588;62.368;25.902;2023-03-01T16:55:57;-2.40;99.90
14985;DHT22;7588;62.368;25.902;2023-03-01T16:58:24;-2.40;99.90
14985;DHT22;7588;62.368;25.902;2023-03-01T17:00:53;-2.40;99.90
14985;DHT22;7588;62.368;25.902;2023-03-01T17:03:24;-2.40;99.90
14985;DHT22;7588;62.368;25.902;2023-03-01T17:05:51;-2.50;99.90
14985;DHT22;7588;62.368;25.902;2023-03-01T17:08:17;-2.60;99.90
14985;DHT22;7588;62.368;25.902;2023-03-01T17:10:43;-2.60;99.90
14985;DHT22;7588;62.368;25.902;2023-03-01T17:13:10;-2.60;99.90
14985;DHT22;7588;62.368;25.902;2023-03-01T17:15:42;-2.50;99.90
14985;DHT22;7588;62.368;25.902;2023-03-01T17:18:08;-2.60;99.90
14985;DHT22;7588;62.368;25.902;2023-03-01T17:20:35;-2.70;99.90
14985;DHT22;7588;62.368;25.902;2023-03-01T17:23:01;-2.70;99.90
14985;DHT22;7588;62.368;25.902;2023-03-01T17:25:27;-2.70;99.90
14985;DHT22;7588;62.368;25.902;2023-03-01T17:27:53;-2.80;99.90
14985;DHT22;7588;62.368;25.902;2023-03-01T17:30:19;-2.90;99.90
14985;DHT22;7588;62.368;25.902;2023-03-01T17:32:44;-2.90;99.90
14985;DHT22;7588;62.368;25.902;2023-03-01T17:35:10;-3.00;99.90
14985;DHT22;7588;62.368;25.902;2023-03-01T17:37:37;-3.10;99.90
14985;DHT22;7588;62.368;25.902;2023-03-01T17:40:05;-3.30;99.90
14985;DHT22;7588;62.368;25.902;2023-03-01T17:42:32;-3.40;99.90
14985;DHT22;7588;62.368;25.902;2023-03-01T17:44:58;-3.40;99.90
14985;DHT22;7588;62.368;25.902;2023-03-01T17:47:24;-3.50;99.90
14985;DHT22;7588;62.368;25.902;2023-03-01T17:49:50;-3.50;99.90
14985;DHT22;7588;62.368;25.902;2023-03-01T17:52:16;-3.50;99.90
14985;DHT22;7588;62.368;25.902;2023-03-01T17:54:41;-3.60;99.90
14985;DHT22;7588;62.368;25.902;2023-03-01T17:57:07;-3.50;99.90
14985;DHT22;7588;62.368;25.902;2023-03-01T17:59:36;-3.60;99.90
14985;DHT22;7588;62.368;25.902;2023-03-01T18:02:01;-3.70;99.90
14985;DHT22;7588;62.368;25.902;2023-03-01T18:04:28;-3.70;99.90
14985;DHT22;7588;62.368;25.902;2023-03-01T18:06:54;-3.80;99.90
14985;DHT22;7588;62.368;25.902;2023-03-01T18:09:20;-3.70;99.90